sensor_id;sensor_type;location;lat;lon;timestamp;P1;durP1;ratioP1;P2;durP2;ratioP2
21546;SDS011;41275;51.912;4.388;2022-11-20T00:01:23;13.90;;;7.80;;
21546;SDS011;41275;51.912;4.388;2022-11-20T00:06:46;13.73;;;8.23;;
21546;SDS011;41275;51.912;4.388;2022-11-20T00:12:07;18.77;;;9.15;;
21546;SDS011;41275;51.912;4.388;2022-11-20T00:17:28;14.90;;;8.30;;
21546;SDS011;41275;51.912;4.388;2022-11-20T00:22:50;14.63;;;8.40;;
21546;SDS011;41275;51.912;4.388;2022-11-20T00:28:11;17.80;;;9.48;;
21546;SDS011;41275;51.912;4.388;2022-11-20T00:33:32;18.02;;;9.60;;
21546;SDS011;41275;51.912;4.388;2022-11-20T00:38:54;16.98;;;8.82;;
21546;SDS011;41275;51.912;4.388;2022-11-20T00:44:19;14.75;;;7.72;;
21546;SDS011;41275;51.912;4.388;2022-11-20T00:49:40;17.45;;;10.15;;
21546;SDS011;41275;51.912;4.388;2022-11-20T00:55:02;16.07;;;8.17;;
21546;SDS011;41275;51.912;4.388;2022-11-20T01:00:23;13.45;;;7.95;;
21546;SDS011;41275;51.912;4.388;2022-11-20T01:05:44;17.40;;;9.00;;
21546;SDS011;41275;51.912;4.388;2022-11-20T01:11:06;17.63;;;9.37;;
21546;SDS011;41275;51.912;4.388;2022-11-20T01:16:33;16.40;;;8.10;;
21546;SDS011;41275;51.912;4.388;2022-11-20T01:21:56;13.05;;;7.50;;
21546;SDS011;41275;51.912;4.388;2022-11-20T01:27:18;17.38;;;7.85;;
21546;SDS011;41275;51.912;4.388;2022-11-20T01:32:39;18.05;;;8.55;;
21546;SDS011;41275;51.912;4.388;2022-11-20T01:38:00;15.43;;;7.93;;
21546;SDS011;41275;51.912;4.388;2022-11-20T01:43:22;15.68;;;8.27;;
21546;SDS011;41275;51.912;4.388;2022-11-20T01:48:46;15.90;;;8.37;;
21546;SDS011;41275;51.912;4.388;2022-11-20T01:54:25;13.93;;;8.07;;
21546;SDS011;41275;51.912;4.388;2022-11-20T01:59:57;14.68;;;7.80;;
21546;SDS011;41275;51.912;4.388;2022-11-20T02:11:24;13.93;;;8.00;;
21546;SDS011;41275;51.912;4.388;2022-11-20T02:16:46;14.98;;;8.13;;
21546;SDS011;41275;51.912;4.388;2022-11-20T02:22:13;14.93;;;7.97;;
21546;SDS011;41275;51.912;4.388;2022-11-20T02:27:37;14.38;;;8.15;;
21546;SDS011;41275;51.912;4.388;2022-11-20T02:32:58;14.27;;;8.18;;
21546;SDS011;41275;51.912;4.388;2022-11-20T02:38:20;16.93;;;8.50;;
21546;SDS011;41275;51.912;4.388;2022-11-20T02:43:41;15.20;;;8.30;;
21546;SDS011;41275;51.912;4.388;2022-11-20T02:49:03;15.80;;;8.53;;
21546;SDS011;41275;51.912;4.388;2022-11-20T02:54:25;15.03;;;8.57;;
21546;SDS011;41275;51.912;4.388;2022-11-20T02:59:46;16.30;;;8.80;;
21546;SDS011;41275;51.912;4.388;2022-11-20T03:05:07;16.55;;;8.57;;
21546;SDS011;41275;51.912;4.388;2022-11-20T03:10:29;15.18;;;8.45;;
21546;SDS011;41275;51.912;4.388;2022-11-20T03:15:50;14.63;;;8.32;;
21546;SDS011;41275;51.912;4.388;2022-11-20T03:21:11;15.35;;;8.80;;
21546;SDS011;41275;51.912;4.388;2022-11-20T03:26:34;15.57;;;8.73;;
21546;SDS011;41275;51.912;4.388;2022-11-20T03:31:55;15.52;;;8.70;;
21546;SDS011;41275;51.912;4.388;2022-11-20T03:37:16;17.17;;;8.73;;
21546;SDS011;41275;51.912;4.388;2022-11-20T03:42:37;17.50;;;9.55;;
21546;SDS011;41275;51.912;4.388;2022-11-20T03:48:07;14.52;;;8.43;;
21546;SDS011;41275;51.912;4.388;2022-11-20T03:53:28;17.17;;;9.00;;
21546;SDS011;41275;51.912;4.388;2022-11-20T03:58:50;16.63;;;8.67;;
21546;SDS011;41275;51.912;4.388;2022-11-20T04:04:11;17.05;;;9.23;;
21546;SDS011;41275;51.912;4.388;2022-11-20T04:09:32;16.77;;;9.13;;
21546;SDS011;41275;51.912;4.388;2022-11-20T04:14:53;16.17;;;9.18;;
21546;SDS011;41275;51.912;4.388;2022-11-20T04:20:15;18.42;;;9.70;;
21546;SDS011;41275;51.912;4.388;2022-11-20T04:25:36;18.27;;;9.33;;
21546;SDS011;41275;51.912;4.388;2022-11-20T04:31:04;15.45;;;9.00;;
21546;SDS011;41275;51.912;4.388;2022-11-20T04:36:29;18.20;;;8.95;;
21546;SDS011;41275;51.912;4.388;2022-11-20T04:41:51;16.58;;;9.48;;
21546;SDS011;41275;51.912;4.388;2022-11-20T04:47:32;16.88;;;9.15;;
21546;SDS011;41275;51.912;4.388;2022-11-20T04:52:53;17.17;;;9.27;;
21546;SDS011;41275;51.912;4.388;2022-11-20T04:58:14;16.77;;;9.23;;
21546;SDS011;41275;51.912;4.388;2022-11-20T05:03:36;17.10;;;8.90;;
21546;SDS011;41275;51.912;4.388;2022-11-20T05:08:57;16.35;;;9.45;;
21546;SDS011;41275;51.912;4.388;2022-11-20T05:14:19;16.58;;;9.35;;
21546;SDS011;41275;51.912;4.388;2022-11-20T05:19:40;17.23;;;9.07;;
21546;SDS011;41275;51.912;4.388;2022-11-20T05:25:01;17.83;;;9.20;;
21546;SDS011;41275;51.912;4.388;2022-11-20T05:30:22;16.25;;;9.23;;
21546;SDS011;41275;51.912;4.388;2022-11-20T05:35:44;17.90;;;9.65;;
21546;SDS011;41275;51.912;4.388;2022-11-20T05:41:10;18.95;;;10.18;;
21546;SDS011;41275;51.912;4.388;2022-11-20T05:46:33;17.13;;;9.02;;
21546;SDS011;41275;51.912;4.388;2022-11-20T05:51:54;17.52;;;9.00;;
21546;SDS011;41275;51.912;4.388;2022-11-20T05:57:15;16.97;;;9.33;;
21546;SDS011;41275;51.912;4.388;2022-11-20T06:02:36;18.90;;;9.60;;
21546;SDS011;41275;51.912;4.388;2022-11-20T06:07:58;16.83;;;9.13;;
21546;SDS011;41275;51.912;4.388;2022-11-20T06:13:21;18.00;;;9.67;;
21546;SDS011;41275;51.912;4.388;2022-11-20T06:18:42;17.80;;;10.07;;
21546;SDS011;41275;51.912;4.388;2022-11-20T06:24:04;18.13;;;10.25;;
21546;SDS011;41275;51.912;4.388;2022-11-20T06:29:25;18.10;;;9.70;;
21546;SDS011;41275;51.912;4.388;2022-11-20T06:34:47;19.88;;;10.85;;
21546;SDS011;41275;51.912;4.388;2022-11-20T06:40:08;20.63;;;10.73;;
21546;SDS011;41275;51.912;4.388;2022-11-20T06:45:30;20.97;;;10.50;;
21546;SDS011;41275;51.912;4.388;2022-11-20T06:50:51;18.03;;;10.07;;
21546;SDS011;41275;51.912;4.388;2022-11-20T06:56:12;19.60;;;10.02;;
21546;SDS011;41275;51.912;4.388;2022-11-20T07:01:33;17.00;;;10.23;;
21546;SDS011;41275;51.912;4.388;2022-11-20T07:06:55;18.80;;;10.70;;
21546;SDS011;41275;51.912;4.388;2022-11-20T07:12:16;15.82;;;9.70;;
21546;SDS011;41275;51.912;4.388;2022-11-20T07:17:38;18.10;;;10.52;;
21546;SDS011;41275;51.912;4.388;2022-11-20T07:22:59;17.53;;;9.77;;
21546;SDS011;41275;51.912;4.388;2022-11-20T07:28:20;17.45;;;9.82;;
21546;SDS011;41275;51.912;4.388;2022-11-20T07:33:42;21.05;;;10.75;;
21546;SDS011;41275;51.912;4.388;2022-11-20T07:39:06;19.67;;;10.63;;
21546;SDS011;41275;51.912;4.388;2022-11-20T07:44:27;18.80;;;10.60;;
21546;SDS011;41275;51.912;4.388;2022-11-20T07:49:48;19.00;;;11.10;;
21546;SDS011;41275;51.912;4.388;2022-11-20T07:55:10;18.67;;;11.10;;
21546;SDS011;41275;51.912;4.388;2022-11-20T08:00:31;20.45;;;11.27;;
21546;SDS011;41275;51.912;4.388;2022-11-20T08:05:52;18.10;;;10.90;;
21546;SDS011;41275;51.912;4.388;2022-11-20T08:11:14;19.60;;;11.68;;
21546;SDS011;41275;51.912;4.388;2022-11-20T08:16:53;20.77;;;11.40;;
21546;SDS011;41275;51.912;4.388;2022-11-20T08:22:15;20.90;;;12.23;;
21546;SDS011;41275;51.912;4.388;2022-11-20T08:27:36;20.45;;;10.90;;
21546;SDS011;41275;51.912;4.388;2022-11-20T08:33:07;20.27;;;10.48;;
21546;SDS011;41275;51.912;4.388;2022-11-20T08:38:30;19.40;;;10.68;;
21546;SDS011;41275;51.912;4.388;2022-11-20T08:43:55;20.35;;;11.05;;
21546;SDS011;41275;51.912;4.388;2022-11-20T08:49:18;21.37;;;11.67;;
21546;SDS011;41275;51.912;4.388;2022-11-20T08:54:42;20.35;;;11.27;;
21546;SDS011;41275;51.912;4.388;2022-11-20T09:00:06;22.90;;;11.88;;
21546;SDS011;41275;51.912;4.388;2022-11-20T09:05:31;20.90;;;11.70;;
21546;SDS011;41275;51.912;4.388;2022-11-20T09:10:56;22.77;;;12.40;;
21546;SDS011;41275;51.912;4.388;2022-11-20T09:16:18;22.58;;;12.20;;
21546;SDS011;41275;51.912;4.388;2022-11-20T09:21:45;23.50;;;12.60;;
21546;SDS011;41275;51.912;4.388;2022-11-20T09:27:09;25.55;;;12.98;;
21546;SDS011;41275;51.912;4.388;2022-11-20T09:32:30;24.58;;;12.98;;
21546;SDS011;41275;51.912;4.388;2022-11-20T09:37:51;23.17;;;13.15;;
21546;SDS011;41275;51.912;4.388;2022-11-20T09:43:20;28.25;;;13.88;;
21546;SDS011;41275;51.912;4.388;2022-11-20T09:54:38;23.50;;;13.27;;
21546;SDS011;41275;51.912;4.388;2022-11-20T10:00:03;25.65;;;13.50;;
21546;SDS011;41275;51.912;4.388;2022-11-20T10:05:27;24.43;;;12.97;;
21546;SDS011;41275;51.912;4.388;2022-11-20T10:10:53;26.00;;;13.40;;
21546;SDS011;41275;51.912;4.388;2022-11-20T10:16:32;23.33;;;13.13;;
21546;SDS011;41275;51.912;4.388;2022-11-20T10:22:20;24.43;;;13.40;;
21546;SDS011;41275;51.912;4.388;2022-11-20T10:33:15;29.55;;;14.35;;
21546;SDS011;41275;51.912;4.388;2022-11-20T10:38:44;27.58;;;15.32;;
21546;SDS011;41275;51.912;4.388;2022-11-20T10:44:16;28.77;;;15.32;;
21546;SDS011;41275;51.912;4.388;2022-11-20T10:50:02;29.07;;;15.23;;
21546;SDS011;41275;51.912;4.388;2022-11-20T11:01:05;33.35;;;16.08;;
21546;SDS011;41275;51.912;4.388;2022-11-20T11:06:47;33.60;;;16.50;;
21546;SDS011;41275;51.912;4.388;2022-11-20T11:12:10;35.45;;;18.08;;
21546;SDS011;41275;51.912;4.388;2022-11-20T11:17:32;37.17;;;17.75;;
21546;SDS011;41275;51.912;4.388;2022-11-20T11:22:58;37.70;;;18.23;;
21546;SDS011;41275;51.912;4.388;2022-11-20T11:28:21;35.58;;;17.65;;
21546;SDS011;41275;51.912;4.388;2022-11-20T11:33:45;39.72;;;19.17;;
21546;SDS011;41275;51.912;4.388;2022-11-20T11:39:10;36.53;;;17.43;;
21546;SDS011;41275;51.912;4.388;2022-11-20T11:44:36;36.08;;;16.58;;
21546;SDS011;41275;51.912;4.388;2022-11-20T11:50:20;33.90;;;17.33;;
21546;SDS011;41275;51.912;4.388;2022-11-20T11:55:49;32.85;;;17.02;;
21546;SDS011;41275;51.912;4.388;2022-11-20T12:01:20;30.95;;;15.73;;
21546;SDS011;41275;51.912;4.388;2022-11-20T12:06:44;34.15;;;16.58;;
21546;SDS011;41275;51.912;4.388;2022-11-20T12:12:12;40.33;;;17.55;;
21546;SDS011;41275;51.912;4.388;2022-11-20T12:17:39;31.80;;;16.80;;
21546;SDS011;41275;51.912;4.388;2022-11-20T12:23:09;35.67;;;17.33;;
21546;SDS011;41275;51.912;4.388;2022-11-20T12:34:29;36.85;;;17.33;;
21546;SDS011;41275;51.912;4.388;2022-11-20T12:46:05;37.72;;;17.10;;
21546;SDS011;41275;51.912;4.388;2022-11-20T13:02:58;39.83;;;18.35;;
21546;SDS011;41275;51.912;4.388;2022-11-20T13:08:35;40.65;;;18.17;;
21546;SDS011;41275;51.912;4.388;2022-11-20T13:19:39;41.40;;;18.77;;
21546;SDS011;41275;51.912;4.388;2022-11-20T13:25:00;40.53;;;18.80;;
21546;SDS011;41275;51.912;4.388;2022-11-20T13:30:25;39.10;;;18.47;;
21546;SDS011;41275;51.912;4.388;2022-11-20T13:35:56;42.70;;;19.38;;
21546;SDS011;41275;51.912;4.388;2022-11-20T13:41:35;42.27;;;20.17;;
21546;SDS011;41275;51.912;4.388;2022-11-20T13:46:58;50.33;;;20.45;;
21546;SDS011;41275;51.912;4.388;2022-11-20T14:03:54;46.08;;;21.15;;
21546;SDS011;41275;51.912;4.388;2022-11-20T14:09:25;48.95;;;21.55;;
21546;SDS011;41275;51.912;4.388;2022-11-20T14:14:50;44.28;;;20.60;;
21546;SDS011;41275;51.912;4.388;2022-11-20T14:20:15;44.78;;;20.75;;
21546;SDS011;41275;51.912;4.388;2022-11-20T14:25:42;45.78;;;21.10;;
21546;SDS011;41275;51.912;4.388;2022-11-20T14:31:08;42.80;;;19.83;;
21546;SDS011;41275;51.912;4.388;2022-11-20T14:36:42;45.25;;;21.27;;
21546;SDS011;41275;51.912;4.388;2022-11-20T14:42:14;44.47;;;20.17;;
21546;SDS011;41275;51.912;4.388;2022-11-20T14:47:37;39.55;;;19.63;;
21546;SDS011;41275;51.912;4.388;2022-11-20T14:52:59;38.63;;;18.17;;
21546;SDS011;41275;51.912;4.388;2022-11-20T14:58:22;37.42;;;18.40;;
21546;SDS011;41275;51.912;4.388;2022-11-20T15:03:45;37.20;;;17.60;;
21546;SDS011;41275;51.912;4.388;2022-11-20T15:09:12;37.47;;;16.90;;
21546;SDS011;41275;51.912;4.388;2022-11-20T15:14:35;34.60;;;16.73;;
21546;SDS011;41275;51.912;4.388;2022-11-20T15:19:57;35.78;;;16.90;;
21546;SDS011;41275;51.912;4.388;2022-11-20T15:25:20;36.65;;;16.50;;
21546;SDS011;41275;51.912;4.388;2022-11-20T15:30:41;37.40;;;16.27;;
21546;SDS011;41275;51.912;4.388;2022-11-20T15:36:03;36.87;;;16.17;;
21546;SDS011;41275;51.912;4.388;2022-11-20T15:41:24;32.10;;;15.25;;
21546;SDS011;41275;51.912;4.388;2022-11-20T15:46:46;29.45;;;14.05;;
21546;SDS011;41275;51.912;4.388;2022-11-20T15:52:08;26.38;;;12.90;;
21546;SDS011;41275;51.912;4.388;2022-11-20T15:57:30;30.67;;;13.30;;
21546;SDS011;41275;51.912;4.388;2022-11-20T16:02:51;24.50;;;12.73;;
21546;SDS011;41275;51.912;4.388;2022-11-20T16:08:13;25.55;;;12.93;;
21546;SDS011;41275;51.912;4.388;2022-11-20T16:13:34;26.83;;;13.57;;
21546;SDS011;41275;51.912;4.388;2022-11-20T16:19:14;22.75;;;11.95;;
21546;SDS011;41275;51.912;4.388;2022-11-20T16:24:36;27.38;;;12.60;;
21546;SDS011;41275;51.912;4.388;2022-11-20T16:29:57;31.37;;;14.47;;
21546;SDS011;41275;51.912;4.388;2022-11-20T16:35:18;31.25;;;14.75;;
21546;SDS011;41275;51.912;4.388;2022-11-20T16:40:40;30.80;;;14.98;;
21546;SDS011;41275;51.912;4.388;2022-11-20T16:46:03;26.80;;;14.02;;
21546;SDS011;41275;51.912;4.388;2022-11-20T16:51:25;30.83;;;15.20;;
21546;SDS011;41275;51.912;4.388;2022-11-20T16:56:48;28.13;;;15.83;;
21546;SDS011;41275;51.912;4.388;2022-11-20T17:02:10;27.88;;;14.65;;
21546;SDS011;41275;51.912;4.388;2022-11-20T17:07:32;29.05;;;14.90;;
21546;SDS011;41275;51.912;4.388;2022-11-20T17:12:53;33.50;;;15.88;;
21546;SDS011;41275;51.912;4.388;2022-11-20T17:18:14;30.98;;;16.33;;
21546;SDS011;41275;51.912;4.388;2022-11-20T17:23:36;31.50;;;15.40;;
21546;SDS011;41275;51.912;4.388;2022-11-20T17:29:06;30.67;;;16.10;;
21546;SDS011;41275;51.912;4.388;2022-11-20T17:34:30;28.98;;;15.15;;
21546;SDS011;41275;51.912;4.388;2022-11-20T17:39:51;32.45;;;16.58;;
21546;SDS011;41275;51.912;4.388;2022-11-20T17:45:12;28.98;;;14.85;;
21546;SDS011;41275;51.912;4.388;2022-11-20T17:50:34;30.52;;;15.27;;
21546;SDS011;41275;51.912;4.388;2022-11-20T17:55:55;31.43;;;15.97;;
21546;SDS011;41275;51.912;4.388;2022-11-20T18:01:36;29.27;;;16.07;;
21546;SDS011;41275;51.912;4.388;2022-11-20T18:06:59;28.17;;;15.45;;
21546;SDS011;41275;51.912;4.388;2022-11-20T18:12:20;31.58;;;16.60;;
21546;SDS011;41275;51.912;4.388;2022-11-20T18:17:41;31.35;;;15.85;;
21546;SDS011;41275;51.912;4.388;2022-11-20T18:23:02;30.73;;;16.20;;
21546;SDS011;41275;51.912;4.388;2022-11-20T18:28:23;34.10;;;16.75;;
21546;SDS011;41275;51.912;4.388;2022-11-20T18:33:45;39.33;;;18.30;;
21546;SDS011;41275;51.912;4.388;2022-11-20T18:39:06;36.53;;;18.43;;
21546;SDS011;41275;51.912;4.388;2022-11-20T18:44:28;34.05;;;17.13;;
21546;SDS011;41275;51.912;4.388;2022-11-20T18:50:09;33.23;;;18.93;;
21546;SDS011;41275;51.912;4.388;2022-11-20T18:55:30;37.83;;;20.00;;
21546;SDS011;41275;51.912;4.388;2022-11-20T19:00:51;46.53;;;25.20;;
21546;SDS011;41275;51.912;4.388;2022-11-20T19:06:13;41.70;;;21.08;;
21546;SDS011;41275;51.912;4.388;2022-11-20T19:11:34;42.60;;;22.63;;
21546;SDS011;41275;51.912;4.388;2022-11-20T19:16:56;40.72;;;21.58;;
21546;SDS011;41275;51.912;4.388;2022-11-20T19:22:17;42.23;;;22.47;;
21546;SDS011;41275;51.912;4.388;2022-11-20T19:27:39;44.45;;;23.85;;
21546;SDS011;41275;51.912;4.388;2022-11-20T19:33:00;50.00;;;24.88;;
21546;SDS011;41275;51.912;4.388;2022-11-20T19:38:21;53.03;;;26.65;;
21546;SDS011;41275;51.912;4.388;2022-11-20T19:43:43;56.40;;;31.77;;
21546;SDS011;41275;51.912;4.388;2022-11-20T19:49:05;53.30;;;27.52;;
21546;SDS011;41275;51.912;4.388;2022-11-20T19:54:29;54.15;;;28.15;;
21546;SDS011;41275;51.912;4.388;2022-11-20T19:59:51;45.45;;;24.58;;
21546;SDS011;41275;51.912;4.388;2022-11-20T20:05:12;43.60;;;22.03;;
21546;SDS011;41275;51.912;4.388;2022-11-20T20:10:33;47.17;;;22.40;;
21546;SDS011;41275;51.912;4.388;2022-11-20T20:15:55;32.80;;;16.20;;
21546;SDS011;41275;51.912;4.388;2022-11-20T20:21:16;20.17;;;8.50;;
21546;SDS011;41275;51.912;4.388;2022-11-20T20:26:38;21.87;;;7.80;;
21546;SDS011;41275;51.912;4.388;2022-11-20T20:31:59;21.77;;;5.90;;
21546;SDS011;41275;51.912;4.388;2022-11-20T20:37:21;13.30;;;2.67;;
21546;SDS011;41275;51.912;4.388;2022-11-20T20:42:42;14.35;;;2.92;;
21546;SDS011;41275;51.912;4.388;2022-11-20T20:48:06;12.20;;;2.63;;
21546;SDS011;41275;51.912;4.388;2022-11-20T20:53:28;12.67;;;2.23;;
21546;SDS011;41275;51.912;4.388;2022-11-20T20:58:50;12.70;;;2.08;;
21546;SDS011;41275;51.912;4.388;2022-11-20T21:04:12;12.25;;;2.22;;
21546;SDS011;41275;51.912;4.388;2022-11-20T21:09:33;13.48;;;2.03;;
21546;SDS011;41275;51.912;4.388;2022-11-20T21:14:55;8.80;;;1.95;;
21546;SDS011;41275;51.912;4.388;2022-11-20T21:20:18;13.83;;;2.43;;
21546;SDS011;41275;51.912;4.388;2022-11-20T21:26:05;13.57;;;2.33;;
21546;SDS011;41275;51.912;4.388;2022-11-20T21:31:28;9.50;;;2.20;;
21546;SDS011;41275;51.912;4.388;2022-11-20T21:36:50;11.80;;;2.13;;
21546;SDS011;41275;51.912;4.388;2022-11-20T21:42:11;13.60;;;2.20;;
21546;SDS011;41275;51.912;4.388;2022-11-20T21:47:34;12.30;;;2.20;;
21546;SDS011;41275;51.912;4.388;2022-11-20T21:52:55;11.02;;;2.08;;
21546;SDS011;41275;51.912;4.388;2022-11-20T21:58:17;11.80;;;2.20;;
21546;SDS011;41275;51.912;4.388;2022-11-20T22:03:38;14.57;;;2.33;;
21546;SDS011;41275;51.912;4.388;2022-11-20T22:09:00;11.40;;;1.98;;
21546;SDS011;41275;51.912;4.388;2022-11-20T22:14:22;7.95;;;1.70;;
21546;SDS011;41275;51.912;4.388;2022-11-20T22:19:43;13.45;;;2.40;;
21546;SDS011;41275;51.912;4.388;2022-11-20T22:25:04;11.67;;;2.13;;
21546;SDS011;41275;51.912;4.388;2022-11-20T22:30:26;12.77;;;1.70;;
21546;SDS011;41275;51.912;4.388;2022-11-20T22:35:47;6.87;;;1.10;;
21546;SDS011;41275;51.912;4.388;2022-11-20T22:46:33;3.00;;;0.60;;
21546;SDS011;41275;51.912;4.388;2022-11-20T22:51:56;5.60;;;1.05;;
21546;SDS011;41275;51.912;4.388;2022-11-20T22:57:17;6.72;;;1.30;;
21546;SDS011;41275;51.912;4.388;2022-11-20T23:02:42;8.43;;;1.42;;
21546;SDS011;41275;51.912;4.388;2022-11-20T23:08:04;9.40;;;1.60;;
21546;SDS011;41275;51.912;4.388;2022-11-20T23:13:25;8.23;;;0.90;;
21546;SDS011;41275;51.912;4.388;2022-11-20T23:18:47;5.03;;;0.70;;
21546;SDS011;41275;51.912;4.388;2022-11-20T23:24:08;6.68;;;0.90;;
21546;SDS011;41275;51.912;4.388;2022-11-20T23:29:30;4.67;;;0.77;;
21546;SDS011;41275;51.912;4.388;2022-11-20T23:34:51;7.17;;;1.07;;
21546;SDS011;41275;51.912;4.388;2022-11-20T23:40:12;10.05;;;3.03;;
21546;SDS011;41275;51.912;4.388;2022-11-20T23:45:36;11.47;;;5.00;;
21546;SDS011;41275;51.912;4.388;2022-11-20T23:50:59;12.33;;;5.77;;
21546;SDS011;41275;51.912;4.388;2022-11-20T23:56:20;12.30;;;6.05;;
